A50 weather

Colorado Springs East Airport
Ellicott, Colorado, United States

Public forecast

Using degrees Fahrenheit for public forecast. Weather courtesy of forecast.io.

Closest aviation weather report (METAR) to Colorado Springs East Airport

Closest report is Meadow Lake Airport, 8.6 nm (16.0 km) WNW. Retrieved 2019/10/22 04:35 UTC (6 minutes ago):

KFLY 220435Z AUTO 33006KT 10SM CLR 01/M10 A3018 RMK AO2 T00061097

Closest aviation forecast (TAF) to Colorado Springs East Airport

Closest forecast is City of Colorado Springs Municipal Airport, 14.2 nm (26.3 km) WSW. Retrieved 2019-10-22 00:24 UTC (4 hours ago):

TAF KCOS 212322Z 2200/2224 34013G23KT P6SM SCT100 SCT200 FM220100 35010KT P6SM FEW100 FM221700 23008KT P6SM FEW200